Time;durP1;ratioP1;P1;durP2;ratioP2;P2;SDS_P1;SDS_P2;PMS_P1;PMS_P2;Temp;Humidity;BMP_temperature;BMP_pressure;BME280_temperature;BME280_humidity;BME280_pressure;Samples;Min_cycle;Max_cycle;Signal;HPM_P1;HPM_P2
2022/11/13 00:01:22;;;;;;;5.00;2.10;;;;;;;9.82;91.47;101541.34;1668840;86;21045;-61
2022/11/13 00:04:10;;;;;;;3.08;2.17;;;;;;;9.82;91.38;101542.72;1669039;86;21056;-60
2022/11/13 00:06:57;;;;;;;3.58;1.95;;;;;;;9.83;91.32;101531.59;1668945;86;21036;-59
2022/11/13 00:09:47;;;;;;;4.30;2.15;;;;;;;9.82;91.21;101536.73;1702564;84;21595;-61
2022/11/13 00:12:36;;;;;;;2.72;1.85;;;;;;;9.80;91.22;101533.30;1690539;85;21078;-60
2022/11/13 00:15:24;;;;;;;4.05;2.12;;;;;;;9.79;91.35;101534.32;1668894;86;21080;-60
2022/11/13 00:18:13;;;;;;;3.20;1.92;;;;;;;9.81;91.37;101528.68;1702711;84;21153;-61
2022/11/13 00:21:07;;;;;;;4.03;1.75;;;;;;;9.81;91.26;101526.80;1668576;86;21473;-61
2022/11/13 00:23:55;;;;;;;3.10;1.80;;;;;;;9.79;91.25;101523.38;1702651;84;21021;-60
2022/11/13 00:26:43;;;;;;;5.25;2.37;;;;;;;9.77;91.35;101532.26;1668976;86;21100;-60
2022/11/13 00:29:30;;;;;;;4.80;2.10;;;;;;;9.76;91.47;101534.65;1703004;84;21069;-60
2022/11/13 00:32:19;;;;;;;4.47;2.10;;;;;;;9.76;91.47;101530.55;1690479;85;20974;-60
2022/11/13 00:35:08;;;;;;;4.28;2.20;;;;;;;9.78;91.56;101524.91;1609953;89;21109;-61
2022/11/13 00:37:56;;;;;;;5.28;1.90;;;;;;;9.77;91.66;101528.66;1632757;88;21141;-59
2022/11/13 00:40:44;;;;;;;2.72;1.95;;;;;;;9.77;91.72;101521.82;1610260;89;21113;-58
2022/11/13 00:43:32;;;;;;;3.92;2.17;;;;;;;9.73;91.74;101517.16;1632794;87;21062;-60
2022/11/13 00:46:20;;;;;;;5.22;2.15;;;;;;;9.74;91.86;101513.91;1610121;89;21130;-61
2022/11/13 00:49:08;;;;;;;3.40;2.10;;;;;;;9.74;91.92;101514.77;1632508;87;21071;-60
2022/11/13 00:51:55;;;;;;;3.37;2.27;;;;;;;9.77;91.94;101509.50;1614424;89;21075;-60
2022/11/13 00:54:44;;;;;;;3.50;2.37;;;;;;;9.77;91.91;101511.73;1617301;89;21511;-59
2022/11/13 00:57:32;;;;;;;4.42;2.10;;;;;;;9.73;91.90;101504.84;1617378;88;21059;-61
2022/11/13 01:00:20;;;;;;;3.47;2.10;;;;;;;9.73;91.86;101503.98;1617581;88;21150;-60
2022/11/13 01:03:08;;;;;;;4.58;1.85;;;;;;;9.71;91.92;101507.39;1617373;89;21074;-59
2022/11/13 01:05:55;;;;;;;;;;;;;;;9.71;91.96;101495.08;1619791;88;21067;-61
2022/11/13 01:08:42;;;;;;;3.67;2.02;;;;;;;9.70;91.92;101496.10;1601623;89;20197;-59
2022/11/13 01:11:30;;;;;;;3.17;2.15;;;;;;;9.67;92.02;101502.77;1601835;89;21035;-59
2022/11/13 01:14:17;;;;;;;;;;;;;;;9.68;92.07;101496.78;1660024;86;21016;-59
2022/11/13 01:17:05;;;;;;;4.05;1.75;;;;;;;9.70;92.05;101497.47;1657403;86;20181;-59
2022/11/13 01:19:53;;;;;;;4.17;1.60;;;;;;;9.67;91.94;101506.02;1657590;86;21031;-57
2022/11/13 01:22:40;;;;;;;2.75;1.22;;;;;;;9.68;91.96;101504.98;1636824;86;20992;-58
2022/11/13 01:25:27;;;;;;;2.80;1.82;;;;;;;9.66;91.92;101489.25;1657497;86;21519;-58
2022/11/13 01:28:14;;;;;;;3.83;1.45;;;;;;;9.65;91.95;101496.59;1657420;86;20988;-58
2022/11/13 01:31:10;;;;;;;3.27;1.67;;;;;;;9.67;92.05;101500.54;1657298;86;21053;-58
2022/11/13 01:33:58;;;;;;;2.87;1.70;;;;;;;9.67;92.07;101501.39;1657600;86;21016;-58
2022/11/13 01:36:47;;;;;;;3.33;1.72;;;;;;;9.64;92.17;101494.03;1657338;86;21056;-58
2022/11/13 01:39:34;;;;;;;3.17;1.57;;;;;;;9.60;92.25;101490.77;1662708;86;21100;-57
2022/11/13 01:42:23;;;;;;;3.45;1.60;;;;;;;9.60;92.40;101491.27;1710902;84;20995;-58
2022/11/13 01:46:01;;;;;;;4.28;1.85;;;;;;;9.62;92.49;101485.98;1662543;86;21029;-58
2022/11/13 01:49:05;;;;;;;2.92;1.52;;;;;;;9.58;92.45;101482.38;1710874;84;21434;-58
2022/11/13 01:52:09;;;;;;;2.52;1.30;;;;;;;9.52;92.70;101480.64;1663170;85;21049;-58
2022/11/13 01:55:15;;;;;;;1.80;1.30;;;;;;;9.50;92.92;101482.69;1663875;86;21101;-58
2022/11/13 01:58:03;;;;;;;3.87;1.57;;;;;;;9.52;93.09;101483.38;1663801;86;21532;-57
2022/11/13 02:00:52;;;;;;;3.05;1.67;;;;;;;9.53;93.15;101476.88;1663761;86;21065;-56
2022/11/13 02:03:41;;;;;;;4.28;1.60;;;;;;;9.54;93.26;101484.58;1614333;89;21085;-57
2022/11/13 02:06:42;;;;;;;2.42;1.40;;;;;;;9.53;93.38;101478.25;1614362;89;21073;-58
2022/11/13 02:09:43;;;;;;;2.30;1.40;;;;;;;9.54;93.40;101479.11;1646128;87;21494;-56
2022/11/13 02:12:35;;;;;;;2.55;1.55;;;;;;;9.57;93.45;101471.94;1614377;89;21065;-58
2022/11/13 02:15:24;;;;;;;2.87;1.67;;;;;;;9.58;93.40;101480.49;1614316;89;21561;-57
2022/11/13 02:18:14;;;;;;;2.40;1.67;;;;;;;9.57;93.52;101481.52;1640216;87;21536;-57
2022/11/13 02:21:17;;;;;;;3.08;1.40;;;;;;;9.56;93.59;101485.27;1611124;87;21062;-58
2022/11/13 02:24:26;;;;;;;3.40;1.70;;;;;;;9.56;93.59;101481.17;1661303;86;21532;-57
2022/11/13 02:27:24;;;;;;;1.75;1.30;;;;;;;9.57;93.56;101476.55;1673284;86;21089;-57
2022/11/13 02:30:25;;;;;;;5.30;1.57;;;;;;;9.55;93.58;101473.98;1673429;86;21501;-58
2022/11/13 02:33:29;;;;;;;2.15;1.50;;;;;;;9.56;93.70;101477.06;1673324;86;21228;-58
2022/11/13 02:36:17;;;;;;;3.17;1.62;;;;;;;9.57;93.75;101475.19;1673622;86;21486;-58
2022/11/13 02:39:10;;;;;;;5.55;1.87;;;;;;;9.56;93.69;101472.96;1673353;86;21548;-56
2022/11/13 02:41:57;;;;;;;2.00;1.42;;;;;;;9.58;93.71;101476.39;1676164;84;21062;-58
2022/11/13 02:44:46;;;;;;;3.33;1.50;;;;;;;9.58;93.51;101486.48;1663788;86;21101;-58
2022/11/13 02:47:33;;;;;;;;;;;;;;;9.57;93.45;101475.19;1666279;86;21571;-58
2022/11/13 02:50:20;;;;;;;3.77;1.50;;;;;;;9.57;93.38;101477.92;1712015;83;20163;-56
2022/11/13 02:53:07;;;;;;;2.50;1.50;;;;;;;9.54;93.37;101479.11;1668053;86;21045;-57
2022/11/13 02:55:55;;;;;;;2.15;1.42;;;;;;;9.56;93.35;101483.91;1703028;84;20998;-57
2022/11/13 02:58:42;;;;;;;4.30;1.20;;;;;;;9.55;93.37;101487.66;1690187;85;21010;-57
2022/11/13 03:01:31;;;;;;;2.08;1.72;;;;;;;9.56;93.37;101492.11;1702814;84;21026;-59
2022/11/13 03:04:18;;;;;;;;;;;;;;;9.56;93.39;101493.48;1692774;85;21030;-57
2022/11/13 03:07:06;;;;;;;2.20;1.50;;;;;;;9.57;93.37;101484.77;1690022;85;20250;-57
2022/11/13 03:09:55;;;;;;;2.30;1.32;;;;;;;9.56;93.34;101494.84;1668599;86;21061;-57
2022/11/13 03:12:44;;;;;;;2.22;1.50;;;;;;;9.58;93.38;101498.79;1668807;86;21073;-57
2022/11/13 03:15:31;;;;;;;2.35;1.40;;;;;;;9.59;93.36;101501.36;1668635;86;22010;-57
2022/11/13 03:18:19;;;;;;;2.50;1.32;;;;;;;9.61;93.37;101494.36;1702808;84;21527;-57
2022/11/13 03:21:09;;;;;;;3.35;1.55;;;;;;;9.62;93.27;101493.33;1668761;86;21112;-56
2022/11/13 03:23:57;;;;;;;2.67;1.52;;;;;;;9.64;93.14;101492.66;1668788;86;21077;-58
2022/11/13 03:26:45;;;;;;;2.50;1.45;;;;;;;9.64;93.07;101492.14;1668707;86;21032;-57
2022/11/13 03:29:34;;;;;;;2.58;1.22;;;;;;;9.61;93.06;101489.74;1668726;86;21049;-57
2022/11/13 03:32:21;;;;;;;2.10;1.40;;;;;;;9.60;93.17;101487.17;1703006;84;21058;-57
2022/11/13 03:35:08;;;;;;;;;;;;;;;9.63;93.22;101493.68;1671108;86;21544;-57
2022/11/13 03:37:57;;;;;;;2.70;1.50;;;;;;;9.66;93.24;101498.31;1634999;88;20535;-57
2022/11/13 03:40:45;;;;;;;3.95;1.62;;;;;;;9.65;93.24;101493.00;1615037;89;21064;-57
2022/11/13 03:43:33;;;;;;;4.00;1.77;;;;;;;9.65;93.35;101491.64;1614696;89;21527;-57
2022/11/13 03:46:21;;;;;;;4.90;1.90;;;;;;;9.64;93.46;101488.04;1614826;89;21096;-58
2022/11/13 03:49:08;;;;;;;4.53;2.02;;;;;;;9.61;93.55;101493.84;1615037;89;21368;-57
2022/11/13 03:51:55;;;;;;;4.62;2.05;;;;;;;9.61;93.69;101493.84;1613933;88;21105;-58
2022/11/13 03:54:43;;;;;;;;;;;;;;;9.61;93.81;101501.20;1612634;89;21104;-57
2022/11/13 03:57:31;;;;;;;3.67;1.90;;;;;;;9.57;94.01;101496.56;1682789;85;20553;-58
2022/11/13 04:00:18;;;;;;;4.00;1.90;;;;;;;9.56;94.20;101497.59;1664112;86;21152;-56
2022/11/13 04:03:07;;;;;;;3.27;1.80;;;;;;;9.57;94.30;101501.18;1663783;86;21006;-57
2022/11/13 04:05:54;;;;;;;2.85;1.80;;;;;;;9.57;94.42;101497.08;1647970;86;21078;-57
2022/11/13 04:08:42;;;;;;;4.00;2.22;;;;;;;9.55;94.48;101499.98;1664200;86;20998;-57
2022/11/13 04:11:31;;;;;;;5.95;1.95;;;;;;;9.56;94.70;101500.83;1663851;86;21088;-57
2022/11/13 04:14:18;;;;;;;4.58;1.90;;;;;;;9.56;94.80;101505.80;1664167;86;21029;-58
2022/11/13 04:17:07;;;;;;;4.47;1.80;;;;;;;9.57;94.89;101503.92;1663849;86;21437;-58
2022/11/13 04:19:55;;;;;;;2.33;1.40;;;;;;;9.56;94.95;101502.20;1663672;86;21555;-57
2022/11/13 04:22:43;;;;;;;2.17;1.57;;;;;;;9.56;95.03;101499.47;1664177;86;21033;-58
2022/11/13 04:25:32;;;;;;;4.67;2.42;;;;;;;9.57;95.08;101497.08;1663780;86;21454;-57
2022/11/13 04:28:19;;;;;;;5.42;2.25;;;;;;;9.56;95.27;101500.32;1664084;85;21104;-58
2022/11/13 04:31:07;;;;;;;3.75;1.70;;;;;;;9.57;95.36;101502.04;1663901;86;21033;-60
2022/11/13 04:33:54;;;;;;;2.42;1.60;;;;;;;9.57;95.39;101499.30;1664271;86;21060;-61
2022/11/13 04:36:43;;;;;;;2.33;1.42;;;;;;;9.57;95.51;101502.04;1663949;86;21450;-61
2022/11/13 04:39:32;;;;;;;3.30;1.70;;;;;;;9.57;95.57;101503.92;1664050;86;21042;-60
2022/11/13 04:45:26;;;;;;;6.42;2.00;;;;;;;9.59;95.66;101509.57;1663898;85;21069;-61
2022/11/13 04:48:16;;;;;;;4.28;2.20;;;;;;;9.60;95.71;101510.42;1664022;86;21176;-59
2022/11/13 04:51:04;;;;;;;4.12;2.27;;;;;;;9.62;95.72;101509.24;1663733;85;21124;-58
2022/11/13 04:53:52;;;;;;;5.05;2.50;;;;;;;9.62;95.78;101511.98;1663863;84;21037;-59
2022/11/13 04:56:41;;;;;;;5.47;2.37;;;;;;;9.62;95.88;101517.96;1663932;85;21005;-62
2022/11/13 04:59:28;;;;;;;4.92;2.55;;;;;;;9.65;95.99;101516.27;1663767;85;21089;-59
2022/11/13 05:02:16;;;;;;;3.42;1.90;;;;;;;9.66;95.98;101528.41;1663932;86;21128;-61
2022/11/13 05:05:05;;;;;;;4.72;1.98;;;;;;;9.66;96.01;101527.55;1664086;86;21065;-61
2022/11/13 05:07:52;;;;;;;4.87;2.00;;;;;;;9.62;96.14;101529.77;1663731;86;21097;-60
2022/11/13 05:10:42;;;;;;;3.95;1.87;;;;;;;9.61;96.29;101530.78;1663909;84;21115;-59
2022/11/13 05:13:35;;;;;;;3.08;1.72;;;;;;;9.59;96.46;101535.56;1630728;86;21088;-61
2022/11/13 05:16:23;;;;;;;4.03;1.80;;;;;;;9.60;96.57;101533.17;1663917;86;21976;-61
2022/11/13 05:19:12;;;;;;;4.70;2.17;;;;;;;9.60;96.66;101538.66;1663825;86;21465;-61
2022/11/13 05:22:00;;;;;;;4.55;2.35;;;;;;;9.61;96.78;101539.00;1663983;86;21524;-59
2022/11/13 05:24:50;;;;;;;3.40;1.80;;;;;;;9.63;96.87;101536.95;1663780;85;22065;-61
2022/11/13 05:27:38;;;;;;;3.80;1.75;;;;;;;9.63;96.89;101539.69;1664045;86;21017;-60
2022/11/13 05:30:26;;;;;;;;;;;;;;;9.65;96.87;101537.65;1666270;86;21066;-61
2022/11/13 05:33:14;;;;;;;3.87;1.57;;;;;;;9.66;96.77;101542.61;1682784;85;20263;-61
2022/11/13 05:36:07;;;;;;;3.98;1.90;;;;;;;9.64;96.83;101541.41;1663922;85;21101;-59
2022/11/13 05:38:55;;;;;;;3.85;1.60;;;;;;;9.64;96.86;101533.70;1663799;86;21053;-60
2022/11/13 05:41:43;;;;;;;3.67;1.40;;;;;;;9.63;96.76;101533.36;1663858;86;21065;-59
2022/11/13 05:44:33;;;;;;;2.08;1.20;;;;;;;9.64;96.66;101548.76;1663872;86;21053;-60
2022/11/13 05:47:20;;;;;;;2.58;1.30;;;;;;;9.64;96.71;101548.25;1663746;86;21033;-61
2022/11/13 05:50:09;;;;;;;2.17;1.27;;;;;;;9.63;96.75;101547.90;1664218;86;21029;-59
2022/11/13 05:52:56;;;;;;;2.15;1.10;;;;;;;9.64;96.83;101553.72;1663729;86;21175;-61
2022/11/13 05:55:44;;;;;;;1.37;0.80;;;;;;;9.66;96.85;101540.73;1647886;86;21077;-62
2022/11/13 05:58:32;;;;;;;1.62;0.80;;;;;;;9.68;96.77;101555.62;1664051;86;20998;-60
2022/11/13 06:01:33;;;;;;;2.85;1.30;;;;;;;9.72;96.64;101550.16;1663779;86;21085;-60
2022/11/13 06:04:20;;;;;;;1.67;0.70;;;;;;;9.71;96.60;101556.66;1663748;86;21001;-59
2022/11/13 06:07:08;;;;;;;1.27;0.88;;;;;;;9.69;96.46;101555.97;1664093;86;21120;-61
2022/11/13 06:09:57;;;;;;;0.80;0.80;;;;;;;9.68;96.40;101547.41;1663697;86;21045;-62
2022/11/13 06:12:45;;;;;;;;;;;;;;;9.71;96.31;101554.78;1666457;86;21505;-59
2022/11/13 06:15:33;;;;;;;1.90;0.80;;;;;;;9.72;96.30;101546.05;1682738;85;20484;-60
2022/11/13 06:18:22;;;;;;;0.60;0.60;;;;;;;9.73;96.38;101550.00;1663979;86;21093;-61
2022/11/13 06:21:16;;;;;;;1.10;0.80;;;;;;;9.77;96.18;101560.14;1663940;85;21128;-60
2022/11/13 06:24:05;;;;;;;2.33;0.88;;;;;;;9.79;95.99;101564.42;1664097;86;21077;-60
2022/11/13 06:26:53;;;;;;;1.27;0.90;;;;;;;9.81;95.70;101562.89;1664064;86;21048;-62
2022/11/13 06:29:41;;;;;;;1.05;0.70;;;;;;;9.80;95.55;101563.41;1664149;86;21105;-61
2022/11/13 06:32:29;;;;;;;1.95;1.20;;;;;;;9.80;95.47;101563.92;1663998;86;21054;-61
2022/11/13 06:35:18;;;;;;;1.70;1.00;;;;;;;9.81;95.54;101560.16;1663654;86;21438;-60
2022/11/13 06:38:05;;;;;;;1.12;0.80;;;;;;;9.81;95.56;101556.91;1664002;86;21049;-60
2022/11/13 06:40:53;;;;;;;2.12;1.17;;;;;;;9.83;95.42;101556.23;1664023;86;21445;-62
2022/11/13 06:43:42;;;;;;;3.40;1.95;;;;;;;9.87;95.26;101560.02;1664064;85;21093;-61
2022/11/13 06:46:30;;;;;;;2.33;1.17;;;;;;;9.91;94.96;101560.03;1663758;86;21615;-61
2022/11/13 06:49:18;;;;;;;2.08;1.15;;;;;;;9.92;94.71;101561.74;1663948;86;21057;-59
2022/11/13 06:52:06;;;;;;;2.42;1.32;;;;;;;9.94;94.45;101562.44;1664000;86;21108;-59
2022/11/13 06:54:54;;;;;;;2.60;1.40;;;;;;;9.96;94.22;101559.02;1663705;86;21210;-60
2022/11/13 06:57:43;;;;;;;2.08;1.30;;;;;;;9.97;93.87;101557.48;1663844;86;21168;-61
2022/11/13 07:00:32;;;;;;;2.62;1.47;;;;;;;9.98;93.56;101556.97;1663743;86;21449;-62
2022/11/13 07:03:25;;;;;;;2.45;1.70;;;;;;;9.98;93.31;101561.94;1663940;86;21053;-62
2022/11/13 07:06:18;;;;;;;3.55;1.70;;;;;;;10.01;93.19;101560.75;1664010;86;21006;-61
2022/11/13 07:09:07;;;;;;;2.75;1.50;;;;;;;10.04;92.95;101563.16;1663907;86;21092;-60
2022/11/13 07:11:54;;;;;;;2.67;1.60;;;;;;;10.06;92.65;101560.59;1664028;85;21159;-61
2022/11/13 07:14:43;;;;;;;2.92;1.70;;;;;;;10.08;92.54;101560.44;1663602;86;21541;-61
2022/11/13 07:17:31;;;;;;;2.98;1.67;;;;;;;10.08;92.51;101554.95;1664023;85;21053;-62
2022/11/13 07:20:20;;;;;;;2.90;1.60;;;;;;;10.10;92.26;101557.02;1663803;86;21061;-61
2022/11/13 07:23:08;;;;;;;2.27;1.70;;;;;;;10.12;92.12;101559.08;1664162;85;21049;-60
2022/11/13 07:25:55;;;;;;;3.52;1.77;;;;;;;10.14;92.06;101557.88;1663987;86;21098;-60
2022/11/13 07:28:43;;;;;;;3.02;1.67;;;;;;;10.19;92.09;101560.13;1663865;86;21037;-62
2022/11/13 07:31:32;;;;;;;2.77;1.67;;;;;;;10.24;92.02;101555.03;1663753;85;21077;-61
2022/11/13 07:34:19;;;;;;;2.95;1.82;;;;;;;10.28;91.95;101548.70;1663913;86;21013;-61
2022/11/13 07:37:07;;;;;;;2.45;1.30;;;;;;;10.29;91.76;101548.54;1664113;86;21049;-62
2022/11/13 07:39:55;;;;;;;2.10;1.30;;;;;;;10.33;91.64;101544.44;1664027;86;21072;-60
2022/11/13 07:42:42;;;;;;;3.27;1.80;;;;;;;10.36;91.33;101544.61;1663995;86;21061;-61
2022/11/13 07:45:30;;;;;;;1.67;1.30;;;;;;;10.35;91.06;101540.16;1664106;86;21037;-61
2022/11/13 07:48:19;;;;;;;1.95;1.40;;;;;;;10.34;90.87;101539.81;1664002;85;21002;-61
2022/11/13 07:51:07;;;;;;;2.05;1.45;;;;;;;10.33;90.68;101541.70;1664073;86;21148;-61
2022/11/13 07:53:55;;;;;;;2.12;1.22;;;;;;;10.35;90.68;101543.76;1663809;86;21045;-60
2022/11/13 07:56:46;;;;;;;1.77;1.50;;;;;;;10.40;90.64;101545.99;1668100;86;21511;-62
2022/11/13 07:59:33;;;;;;;2.22;1.65;;;;;;;10.44;90.50;101547.40;1668752;86;21066;-61
2022/11/13 08:02:21;;;;;;;2.77;1.82;;;;;;;10.41;89.59;101544.48;1668733;85;21120;-61
2022/11/13 08:05:12;;;;;;;2.67;1.98;;;;;;;10.37;89.61;101554.55;1668380;86;21061;-60
2022/11/13 08:08:00;;;;;;;3.30;2.00;;;;;;;10.41;89.70;101559.55;1702922;84;21085;-60
2022/11/13 08:10:48;;;;;;;4.65;2.30;;;;;;;10.42;89.59;101566.75;1690516;85;21015;-64
2022/11/13 08:13:38;;;;;;;3.72;2.65;;;;;;;10.43;89.64;101565.73;1702575;84;21041;-62
2022/11/13 08:16:26;;;;;;;3.25;2.10;;;;;;;10.47;89.56;101565.73;1668626;86;21044;-62
2022/11/13 08:19:15;;;;;;;2.62;1.95;;;;;;;10.48;89.37;101565.22;1702602;84;21476;-60
2022/11/13 08:22:04;;;;;;;7.17;2.50;;;;;;;10.50;89.12;101569.16;1668620;86;21092;-61
2022/11/13 08:24:53;;;;;;;3.77;2.50;;;;;;;10.48;89.02;101565.22;1702824;84;20986;-59
2022/11/13 08:27:39;;;;;;;3.52;2.02;;;;;;;10.51;89.04;101565.39;1668779;86;21049;-62
2022/11/13 08:30:28;;;;;;;4.33;2.30;;;;;;;10.53;88.89;101565.56;1702669;84;21016;-60
2022/11/13 08:33:16;;;;;;;2.17;1.90;;;;;;;10.56;88.87;101567.97;1668780;86;21053;-61
2022/11/13 08:36:05;;;;;;;3.70;2.08;;;;;;;10.58;88.75;101559.58;1702851;84;21129;-61
2022/11/13 08:38:53;;;;;;;3.55;2.50;;;;;;;10.62;88.59;101565.06;1690321;85;21050;-63
2022/11/13 08:41:41;;;;;;;4.87;2.80;;;;;;;10.64;88.41;101553.42;1702690;84;21034;-60
2022/11/13 08:44:30;;;;;;;2.87;2.30;;;;;;;10.65;88.26;101559.24;1690136;85;21031;-60
2022/11/13 08:47:18;;;;;;;3.98;2.60;;;;;;;10.67;88.13;101559.42;1668622;86;21037;-61
2022/11/13 08:50:07;;;;;;;;;;;;;;;10.73;87.96;101552.40;1705403;84;21010;-62
2022/11/13 08:52:56;;;;;;;;;;;;;;;10.77;87.66;101547.77;1699067;84;20540;-63
2022/11/13 08:55:43;;;;;;;4.20;3.20;;;;;;;10.84;87.62;101538.86;1726238;83;20563;-63
2022/11/13 08:58:33;;;;;;;4.40;2.83;;;;;;;10.89;87.34;101533.20;1682973;85;21030;-61
2022/11/13 09:01:25;;;;;;;3.10;2.30;;;;;;;10.96;86.74;101541.08;1727556;83;21103;-62
2022/11/13 09:04:10;;;;;;;4.80;3.20;;;;;;;11.00;86.25;101529.25;1654961;84;21494;-61
2022/11/13 09:06:59;;;;;;;4.67;3.10;;;;;;;11.04;85.74;101531.48;1675242;84;21035;-61
2022/11/13 09:09:47;;;;;;;4.40;2.83;;;;;;;11.10;85.67;101528.07;1671336;84;21439;-63
2022/11/13 09:12:36;;;;;;;3.67;2.60;;;;;;;11.15;85.25;101522.58;1699329;83;21453;-62
2022/11/13 09:15:24;;;;;;;3.65;2.25;;;;;;;11.21;85.02;101521.36;1699452;83;21032;-63
2022/11/13 09:18:12;;;;;;;5.47;2.30;;;;;;;11.28;84.43;101515.52;1714266;82;21001;-61
2022/11/13 09:21:02;;;;;;;6.67;2.72;;;;;;;11.33;84.27;101516.36;1693662;84;21064;-60
2022/11/13 09:23:49;;;;;;;3.12;2.20;;;;;;;11.41;84.08;101512.23;1668704;86;21005;-63
2022/11/13 09:26:37;;;;;;;3.87;1.87;;;;;;;11.46;83.71;101514.44;1669117;86;21065;-63
2022/11/13 09:29:27;;;;;;;4.35;1.98;;;;;;;11.51;83.28;101513.40;1667497;86;21109;-62
2022/11/13 09:32:15;;;;;;;1.98;1.45;;;;;;;11.54;82.98;101513.05;1727429;82;21024;-63
2022/11/13 09:35:04;;;;;;;3.75;1.72;;;;;;;11.59;82.31;101510.63;1689939;85;21046;-63
2022/11/13 09:37:52;;;;;;;5.35;2.10;;;;;;;11.60;82.00;101506.33;1728062;82;21016;-61
2022/11/13 09:41:01;;;;;;;5.58;1.60;;;;;;;11.61;81.86;101511.30;1734470;83;21120;-63
2022/11/13 09:43:58;;;;;;;2.45;1.70;;;;;;;11.67;81.79;101508.70;1734560;83;21060;-64
2022/11/13 09:47:10;;;;;;;3.33;1.92;;;;;;;11.72;81.43;101495.33;1734602;83;21068;-61
2022/11/13 09:50:09;;;;;;;2.75;1.57;;;;;;;11.77;81.49;101506.29;1727475;81;21012;-62
2022/11/13 09:52:57;;;;;;;5.03;2.67;;;;;;;11.79;80.68;101507.00;1718515;83;21003;-63
2022/11/13 09:56:37;;;;;;;3.10;2.02;;;;;;;11.76;80.72;101497.20;1706979;84;21073;-61
2022/11/13 09:59:42;;;;;;;2.72;1.67;;;;;;;11.79;80.61;101498.77;1682586;85;21058;-61
2022/11/13 10:02:54;;;;;;;3.20;1.90;;;;;;;11.77;80.48;101492.05;1672212;85;21043;-61
2022/11/13 10:06:05;;;;;;;3.17;1.57;;;;;;;11.74;80.32;101499.27;1646879;87;21040;-59
2022/11/13 10:09:02;;;;;;;4.62;2.00;;;;;;;11.74;80.28;101501.49;1682708;85;21007;-61
2022/11/13 10:11:58;;;;;;;4.35;1.37;;;;;;;11.79;80.01;101508.37;1650957;84;21044;-62
2022/11/13 10:14:50;;;;;;;3.60;1.62;;;;;;;11.81;79.63;101503.56;1731570;82;21029;-59
2022/11/13 10:17:42;;;;;;;2.30;1.32;;;;;;;11.82;79.81;101503.89;1641411;87;21070;-59
2022/11/13 10:20:37;;;;;;;2.60;1.00;;;;;;;11.86;79.97;101504.73;1627934;87;21105;-59
2022/11/13 10:23:41;;;;;;;2.27;1.20;;;;;;;11.91;79.50;101495.95;1583568;90;21138;-60
2022/11/13 10:26:41;;;;;;;3.27;1.20;;;;;;;11.92;79.33;101488.05;1634630;88;21109;-59
2022/11/13 10:29:30;;;;;;;3.27;1.27;;;;;;;11.91;79.08;101487.72;1633447;87;21108;-60
2022/11/13 10:32:27;;;;;;;1.75;1.10;;;;;;;11.98;81.02;101485.44;1618058;89;21093;-58
2022/11/13 10:35:58;;;;;;;3.30;1.47;;;;;;;12.14;80.98;101485.00;1622639;86;21058;-58
2022/11/13 10:39:08;;;;;;;3.35;1.25;;;;;;;12.17;79.81;101492.88;1636470;88;21066;-60
2022/11/13 10:41:56;;;;;;;2.65;1.32;;;;;;;12.24;79.69;101481.50;1636826;88;21025;-59
2022/11/13 10:44:58;;;;;;;2.62;1.30;;;;;;;12.27;79.40;101491.61;1636547;88;21578;-60
2022/11/13 10:47:50;;;;;;;3.72;1.30;;;;;;;12.34;79.31;101494.48;1636585;88;21515;-60
2022/11/13 10:50:40;;;;;;;4.55;2.22;;;;;;;12.44;79.27;101493.76;1636837;88;21110;-59
2022/11/13 10:53:41;;;;;;;2.67;1.52;;;;;;;12.56;78.66;101482.66;1636857;86;21108;-60
2022/11/13 10:56:33;;;;;;;3.55;1.50;;;;;;;12.53;77.44;101488.53;1651471;84;21066;-59
2022/11/13 10:59:20;;;;;;;4.92;1.60;;;;;;;12.51;77.58;101485.11;1663020;85;21092;-60
2022/11/13 11:02:19;;;;;;;4.95;1.50;;;;;;;12.49;76.69;101473.44;1663214;86;21118;-58
2022/11/13 11:05:20;;;;;;;4.97;1.90;;;;;;;12.41;75.99;101483.64;1662572;86;21039;-61
2022/11/13 11:08:10;;;;;;;3.08;1.30;;;;;;;12.29;75.97;101469.45;1662330;86;21059;-59
2022/11/13 11:14:40;;;;;;;2.80;1.30;;;;;;;12.20;75.16;101470.02;1534453;92;21563;-60
2022/11/13 11:17:48;;;;;;;3.90;1.30;;;;;;;12.14;75.38;101460.28;1623951;86;22099;-60
2022/11/13 11:20:58;;;;;;;3.05;1.50;;;;;;;12.11;75.52;101453.77;1669475;86;21034;-61
2022/11/13 11:24:06;;;;;;;1.85;0.98;;;;;;;12.09;75.61;101459.45;1637125;88;21100;-59
2022/11/13 11:27:03;;;;;;;1.70;1.00;;;;;;;12.10;75.80;101456.19;1636903;88;21064;-60
2022/11/13 11:30:18;;;;;;;1.87;1.10;;;;;;;12.12;75.76;101453.59;1636782;88;21013;-60
2022/11/13 11:33:17;;;;;;;3.98;1.52;;;;;;;12.11;75.78;101456.00;1636604;88;21073;-62
2022/11/13 11:36:24;;;;;;;2.52;1.10;;;;;;;12.11;75.58;101453.77;1636682;88;21021;-59
2022/11/13 11:39:27;;;;;;;2.10;1.00;;;;;;;12.06;75.43;101447.45;1652357;86;21007;-58
2022/11/13 11:42:43;;;;;;;2.92;1.40;;;;;;;12.05;75.75;101448.48;1636676;87;21104;-62
2022/11/13 11:45:41;;;;;;;2.58;1.30;;;;;;;12.07;75.60;101439.55;1636693;88;21081;-59
2022/11/13 11:48:31;;;;;;;2.60;1.15;;;;;;;12.07;75.44;101440.92;1636715;88;21509;-58
2022/11/13 11:51:33;;;;;;;2.02;1.20;;;;;;;12.06;75.34;101440.58;1636629;88;21005;-59
2022/11/13 11:54:43;;;;;;;2.20;1.12;;;;;;;12.06;75.48;101442.81;1636834;88;21507;-59
2022/11/13 11:57:58;;;;;;;3.02;1.07;;;;;;;12.06;75.17;101437.31;1636609;87;21148;-57
2022/11/13 12:00:57;;;;;;;2.00;1.20;;;;;;;12.02;75.08;101440.09;1662242;85;21037;-59
2022/11/13 12:04:27;;;;;;;2.40;1.50;;;;;;;11.98;75.24;101432.39;1673793;85;21430;-58
2022/11/13 12:07:38;;;;;;;1.77;1.30;;;;;;;11.97;75.46;101432.06;1671888;85;21126;-57
2022/11/13 12:10:46;;;;;;;3.25;1.07;;;;;;;12.00;75.59;101435.81;1685141;84;21048;-59
2022/11/13 12:13:53;;;;;;;1.98;1.32;;;;;;;12.05;75.62;101434.23;1683299;84;21052;-60
2022/11/13 12:17:05;;;;;;;2.40;1.42;;;;;;;12.05;75.38;101432.86;1677055;84;21055;-58
2022/11/13 12:20:15;;;;;;;1.62;1.17;;;;;;;12.04;75.57;101436.64;1672335;86;21452;-58
2022/11/13 12:23:14;;;;;;;4.13;1.40;;;;;;;12.05;75.57;101442.99;1672564;85;21047;-58
2022/11/13 12:26:04;;;;;;;;;;;;;;;12.06;75.67;101441.95;1674995;86;21028;-58
2022/11/13 12:29:22;;;;;;;6.72;1.40;;;;;;;12.07;75.72;101445.04;1672359;86;20462;-57
2022/11/13 12:32:36;;;;;;;2.90;1.25;;;;;;;12.06;75.82;101440.06;1590006;90;21007;-58
2022/11/13 12:35:25;;;;;;;2.62;1.37;;;;;;;12.05;75.91;101440.25;1672231;86;21083;-60
2022/11/13 12:38:37;;;;;;;5.00;1.57;;;;;;;12.04;76.02;101429.77;1658409;86;21090;-58
2022/11/13 12:41:38;;;;;;;3.90;1.32;;;;;;;12.03;75.88;101428.59;1658223;86;21483;-58
2022/11/13 12:44:28;;;;;;;3.45;1.47;;;;;;;12.00;75.68;101427.06;1672359;86;21091;-59
2022/11/13 12:47:16;;;;;;;3.83;1.30;;;;;;;11.99;75.39;101429.98;1658566;86;21086;-59
2022/11/13 12:50:24;;;;;;;3.08;1.40;;;;;;;11.99;75.50;101432.22;1658587;86;21079;-59
2022/11/13 12:53:19;;;;;;;2.58;1.57;;;;;;;11.99;75.49;101437.70;1658515;86;21027;-58
2022/11/13 12:56:14;;;;;;;3.27;1.50;;;;;;;11.98;75.62;101429.65;1658456;86;21054;-59
2022/11/13 12:59:19;;;;;;;6.40;2.00;;;;;;;11.99;75.64;101434.11;1658460;86;21011;-59
2022/11/13 13:02:39;;;;;;;4.17;1.57;;;;;;;12.00;75.64;101430.33;1661251;86;21483;-59
2022/11/13 13:06:04;;;;;;;6.30;1.62;;;;;;;11.98;75.51;101426.38;1668907;85;21054;-58
2022/11/13 13:10:28;;;;;;;3.45;1.60;;;;;;;11.97;75.53;101427.94;1700726;84;21564;-58
2022/11/13 13:13:59;;;;;;;3.00;1.52;;;;;;;11.96;75.38;101422.97;1693204;84;21124;-59
2022/11/13 13:16:49;;;;;;;3.65;1.70;;;;;;;11.95;75.45;101425.89;1695796;84;21061;-59
2022/11/13 13:19:38;;;;;;;4.50;1.85;;;;;;;11.96;75.55;101430.35;1668937;85;21109;-58
2022/11/13 13:22:32;;;;;;;2.62;1.40;;;;;;;11.97;75.59;101434.80;1663507;86;21153;-60
2022/11/13 13:25:31;;;;;;;3.22;1.55;;;;;;;11.98;75.44;101434.63;1663688;86;21025;-59
2022/11/13 13:28:23;;;;;;;2.67;1.60;;;;;;;11.97;75.41;101429.31;1647738;86;21084;-59
2022/11/13 13:31:43;;;;;;;5.20;1.92;;;;;;;11.99;75.55;101425.86;1663713;85;21073;-61
2022/11/13 13:35:20;;;;;;;6.42;1.57;;;;;;;11.97;75.25;101422.45;1663807;86;21061;-62
2022/11/13 13:38:41;;;;;;;4.30;2.12;;;;;;;11.90;74.92;101420.95;1663658;86;21045;-62
2022/11/13 13:42:12;;;;;;;3.17;1.55;;;;;;;11.84;75.08;101411.20;1663781;86;21096;-62